sensor_id;sensor_type;location;lat;lon;timestamp;pressure;altitude;pressure_sealevel;temperature;humidity
11985;BME280;6052;53.246;10.368;2023-11-18T00:01:19;101903.06;;;6.94;100.00
11985;BME280;6052;53.246;10.368;2023-11-18T00:03:50;101906.75;;;6.93;100.00
11985;BME280;6052;53.246;10.368;2023-11-18T00:06:20;101896.06;;;6.93;100.00
11985;BME280;6052;53.246;10.368;2023-11-18T00:08:49;101897.53;;;6.95;100.00
11985;BME280;6052;53.246;10.368;2023-11-18T00:11:19;101898.63;;;6.86;100.00
11985;BME280;6052;53.246;10.368;2023-11-18T00:13:51;101890.72;;;6.93;100.00
11985;BME280;6052;53.246;10.368;2023-11-18T00:16:21;101891.56;;;6.93;100.00
11985;BME280;6052;53.246;10.368;2023-11-18T00:18:50;101886.94;;;6.87;100.00
11985;BME280;6052;53.246;10.368;2023-11-18T00:21:20;101887.88;;;6.94;100.00
11985;BME280;6052;53.246;10.368;2023-11-18T00:23:50;101885.84;;;6.96;100.00
11985;BME280;6052;53.246;10.368;2023-11-18T00:26:20;101883.34;;;6.95;100.00
11985;BME280;6052;53.246;10.368;2023-11-18T00:28:52;101878.03;;;6.95;100.00
11985;BME280;6052;53.246;10.368;2023-11-18T00:31:21;101878.28;;;7.00;100.00
11985;BME280;6052;53.246;10.368;2023-11-18T00:33:51;101878.28;;;7.00;100.00
11985;BME280;6052;53.246;10.368;2023-11-18T00:36:21;101881.81;;;7.00;100.00
11985;BME280;6052;53.246;10.368;2023-11-18T00:38:51;101880.16;;;6.99;100.00
11985;BME280;6052;53.246;10.368;2023-11-18T00:41:20;101876.91;;;7.04;100.00
11985;BME280;6052;53.246;10.368;2023-11-18T00:43:53;101886.78;;;7.03;100.00
11985;BME280;6052;53.246;10.368;2023-11-18T00:46:23;101881.91;;;7.07;100.00
11985;BME280;6052;53.246;10.368;2023-11-18T00:48:53;101884.75;;;7.05;100.00
11985;BME280;6052;53.246;10.368;2023-11-18T00:51:24;101888.44;;;7.04;100.00
11985;BME280;6052;53.246;10.368;2023-11-18T00:53:54;101891.00;;;6.98;100.00
11985;BME280;6052;53.246;10.368;2023-11-18T00:56:24;101893.50;;;6.99;100.00
11985;BME280;6052;53.246;10.368;2023-11-18T00:58:58;101902.81;;;7.03;100.00
11985;BME280;6052;53.246;10.368;2023-11-18T01:01:27;101906.28;;;7.04;100.00
11985;BME280;6052;53.246;10.368;2023-11-18T01:03:58;101900.94;;;7.04;100.00
11985;BME280;6052;53.246;10.368;2023-11-18T01:06:28;101903.16;;;7.00;100.00
11985;BME280;6052;53.246;10.368;2023-11-18T01:08:59;101900.75;;;7.05;100.00
11985;BME280;6052;53.246;10.368;2023-11-18T01:11:28;101903.78;;;7.02;100.00
11985;BME280;6052;53.246;10.368;2023-11-18T01:14:01;101891.75;;;6.92;100.00
11985;BME280;6052;53.246;10.368;2023-11-18T01:16:30;101897.25;;;7.05;100.00
11985;BME280;6052;53.246;10.368;2023-11-18T01:19:00;101900.50;;;7.00;100.00
11985;BME280;6052;53.246;10.368;2023-11-18T01:21:30;101903.63;;;7.04;100.00
11985;BME280;6052;53.246;10.368;2023-11-18T01:24:00;101899.91;;;7.05;100.00
11985;BME280;6052;53.246;10.368;2023-11-18T01:26:29;101899.47;;;7.01;100.00
11985;BME280;6052;53.246;10.368;2023-11-18T01:29:01;101906.47;;;7.02;100.00
11985;BME280;6052;53.246;10.368;2023-11-18T01:31:31;101913.28;;;7.05;100.00
11985;BME280;6052;53.246;10.368;2023-11-18T01:34:17;101911.78;;;7.02;100.00
11985;BME280;6052;53.246;10.368;2023-11-18T01:36:49;101913.94;;;7.07;100.00
11985;BME280;6052;53.246;10.368;2023-11-18T01:39:19;101912.09;;;6.93;100.00
11985;BME280;6052;53.246;10.368;2023-11-18T01:41:49;101920.38;;;6.98;100.00
11985;BME280;6052;53.246;10.368;2023-11-18T01:44:21;101917.97;;;7.03;100.00
11985;BME280;6052;53.246;10.368;2023-11-18T01:46:51;101914.09;;;7.05;100.00
11985;BME280;6052;53.246;10.368;2023-11-18T01:49:21;101923.50;;;7.01;100.00
11985;BME280;6052;53.246;10.368;2023-11-18T01:51:54;101924.22;;;6.95;100.00
11985;BME280;6052;53.246;10.368;2023-11-18T01:54:24;101924.22;;;6.95;100.00
11985;BME280;6052;53.246;10.368;2023-11-18T01:56:55;101927.06;;;6.94;100.00
11985;BME280;6052;53.246;10.368;2023-11-18T01:59:28;101928.19;;;6.99;100.00
11985;BME280;6052;53.246;10.368;2023-11-18T02:02:00;101922.75;;;6.93;100.00
11985;BME280;6052;53.246;10.368;2023-11-18T02:04:30;101925.88;;;6.96;100.00
11985;BME280;6052;53.246;10.368;2023-11-18T02:07:00;101917.53;;;6.99;100.00
11985;BME280;6052;53.246;10.368;2023-11-18T02:09:36;101914.94;;;6.91;100.00
11985;BME280;6052;53.246;10.368;2023-11-18T02:12:15;101909.69;;;6.98;100.00
11985;BME280;6052;53.246;10.368;2023-11-18T02:14:50;101921.38;;;6.97;100.00
11985;BME280;6052;53.246;10.368;2023-11-18T02:17:21;101928.19;;;6.99;100.00
11985;BME280;6052;53.246;10.368;2023-11-18T02:19:53;101931.03;;;6.98;100.00
11985;BME280;6052;53.246;10.368;2023-11-18T02:22:25;101931.22;;;6.96;100.00
11985;BME280;6052;53.246;10.368;2023-11-18T02:24:56;101931.78;;;6.92;100.00
11985;BME280;6052;53.246;10.368;2023-11-18T02:27:28;101935.25;;;6.92;100.00
11985;BME280;6052;53.246;10.368;2023-11-18T02:29:57;101937.41;;;6.97;100.00
11985;BME280;6052;53.246;10.368;2023-11-18T02:32:29;101951.09;;;6.94;100.00
11985;BME280;6052;53.246;10.368;2023-11-18T02:35:08;101940.41;;;6.94;100.00
11985;BME280;6052;53.246;10.368;2023-11-18T02:37:45;101953.13;;;6.92;100.00
11985;BME280;6052;53.246;10.368;2023-11-18T02:40:19;101952.84;;;6.87;100.00
11985;BME280;6052;53.246;10.368;2023-11-18T02:42:53;101956.72;;;6.84;100.00
11985;BME280;6052;53.246;10.368;2023-11-18T02:45:24;101952.69;;;6.88;100.00
11985;BME280;6052;53.246;10.368;2023-11-18T02:47:53;101955.97;;;6.90;100.00
11985;BME280;6052;53.246;10.368;2023-11-18T02:50:24;101953.59;;;6.95;100.00
11985;BME280;6052;53.246;10.368;2023-11-18T02:52:54;101957.28;;;6.94;100.00
11985;BME280;6052;53.246;10.368;2023-11-18T02:55:24;101959.78;;;6.96;100.00
11985;BME280;6052;53.246;10.368;2023-11-18T02:57:56;101960.13;;;6.93;100.00
11985;BME280;6052;53.246;10.368;2023-11-18T03:00:28;101962.22;;;6.97;100.00
11985;BME280;6052;53.246;10.368;2023-11-18T03:02:58;101964.44;;;6.94;100.00
11985;BME280;6052;53.246;10.368;2023-11-18T03:05:30;101963.81;;;6.92;100.00
11985;BME280;6052;53.246;10.368;2023-11-18T03:08:00;101967.50;;;6.91;100.00
11985;BME280;6052;53.246;10.368;2023-11-18T03:10:33;101963.41;;;6.95;100.00
11985;BME280;6052;53.246;10.368;2023-11-18T03:13:06;101964.81;;;6.91;100.00
11985;BME280;6052;53.246;10.368;2023-11-18T03:15:36;101965.47;;;6.93;100.00
11985;BME280;6052;53.246;10.368;2023-11-18T03:18:05;101971.25;;;6.82;100.00
11985;BME280;6052;53.246;10.368;2023-11-18T03:20:35;101967.28;;;6.92;100.00
11985;BME280;6052;53.246;10.368;2023-11-18T03:23:05;101969.66;;;6.87;100.00
11985;BME280;6052;53.246;10.368;2023-11-18T03:25:35;101954.31;;;6.89;100.00
11985;BME280;6052;53.246;10.368;2023-11-18T03:28:08;101958.81;;;6.89;100.00
11985;BME280;6052;53.246;10.368;2023-11-18T03:30:37;101957.63;;;6.91;100.00
11985;BME280;6052;53.246;10.368;2023-11-18T03:33:08;101956.16;;;6.89;100.00
11985;BME280;6052;53.246;10.368;2023-11-18T03:35:38;101957.81;;;6.90;100.00
11985;BME280;6052;53.246;10.368;2023-11-18T03:38:08;101953.47;;;6.89;100.00
11985;BME280;6052;53.246;10.368;2023-11-18T03:40:38;101955.13;;;6.90;100.00
11985;BME280;6052;53.246;10.368;2023-11-18T03:43:10;101959.22;;;6.86;100.00
11985;BME280;6052;53.246;10.368;2023-11-18T03:45:40;101955.69;;;6.85;100.00
11985;BME280;6052;53.246;10.368;2023-11-18T03:48:10;101951.00;;;6.87;100.00
11985;BME280;6052;53.246;10.368;2023-11-18T03:50:41;101959.56;;;6.83;100.00
11985;BME280;6052;53.246;10.368;2023-11-18T03:53:11;101957.00;;;6.89;100.00
11985;BME280;6052;53.246;10.368;2023-11-18T03:55:40;101962.50;;;6.88;100.00
11985;BME280;6052;53.246;10.368;2023-11-18T03:58:12;101966.53;;;6.84;100.00
11985;BME280;6052;53.246;10.368;2023-11-18T04:00:42;101967.84;;;6.88;100.00
11985;BME280;6052;53.246;10.368;2023-11-18T04:03:12;101975.50;;;6.91;100.00
11985;BME280;6052;53.246;10.368;2023-11-18T04:05:41;101977.69;;;6.87;100.00
11985;BME280;6052;53.246;10.368;2023-11-18T04:08:11;101975.84;;;6.88;100.00
11985;BME280;6052;53.246;10.368;2023-11-18T04:10:41;101972.34;;;6.87;100.00
11985;BME280;6052;53.246;10.368;2023-11-18T04:13:13;101973.53;;;6.85;100.00
11985;BME280;6052;53.246;10.368;2023-11-18T04:15:42;101969.88;;;6.86;100.00
11985;BME280;6052;53.246;10.368;2023-11-18T04:18:12;101968.56;;;6.82;100.00
11985;BME280;6052;53.246;10.368;2023-11-18T04:20:41;101965.25;;;6.80;100.00
11985;BME280;6052;53.246;10.368;2023-11-18T04:23:13;101971.41;;;6.80;100.00
11985;BME280;6052;53.246;10.368;2023-11-18T04:25:43;101968.94;;;6.79;100.00
11985;BME280;6052;53.246;10.368;2023-11-18T04:28:15;101970.56;;;6.80;100.00
11985;BME280;6052;53.246;10.368;2023-11-18T04:30:46;101970.06;;;6.84;100.00
11985;BME280;6052;53.246;10.368;2023-11-18T04:33:16;101971.06;;;6.83;100.00
11985;BME280;6052;53.246;10.368;2023-11-18T04:35:46;101970.41;;;6.81;100.00
11985;BME280;6052;53.246;10.368;2023-11-18T04:38:16;101964.97;;;6.75;100.00
11985;BME280;6052;53.246;10.368;2023-11-18T04:40:45;101971.78;;;6.77;100.00
11985;BME280;6052;53.246;10.368;2023-11-18T04:43:18;101962.50;;;6.73;100.00
11985;BME280;6052;53.246;10.368;2023-11-18T04:46:05;101965.34;;;6.72;100.00
11985;BME280;6052;53.246;10.368;2023-11-18T04:48:34;101960.53;;;6.67;100.00
11985;BME280;6052;53.246;10.368;2023-11-18T04:51:08;101954.56;;;6.65;100.00
11985;BME280;6052;53.246;10.368;2023-11-18T04:53:38;101956.84;;;6.68;100.00
11985;BME280;6052;53.246;10.368;2023-11-18T04:56:08;101967.50;;;6.68;100.00
11985;BME280;6052;53.246;10.368;2023-11-18T04:58:41;101962.56;;;6.65;100.00
11985;BME280;6052;53.246;10.368;2023-11-18T05:01:13;101971.81;;;6.55;100.00
11985;BME280;6052;53.246;10.368;2023-11-18T05:03:44;101967.78;;;6.59;100.00
11985;BME280;6052;53.246;10.368;2023-11-18T05:06:14;101962.63;;;6.57;100.00
11985;BME280;6052;53.246;10.368;2023-11-18T05:08:46;101963.06;;;6.46;100.00
11985;BME280;6052;53.246;10.368;2023-11-18T05:11:16;101962.59;;;6.43;100.00
11985;BME280;6052;53.246;10.368;2023-11-18T05:13:48;101959.25;;;6.41;100.00
11985;BME280;6052;53.246;10.368;2023-11-18T05:16:18;101961.44;;;6.37;100.00
11985;BME280;6052;53.246;10.368;2023-11-18T05:18:48;101950.84;;;6.29;100.00
11985;BME280;6052;53.246;10.368;2023-11-18T05:21:18;101937.72;;;6.28;100.00
11985;BME280;6052;53.246;10.368;2023-11-18T05:23:48;101937.03;;;6.26;100.00
11985;BME280;6052;53.246;10.368;2023-11-18T05:26:17;101936.22;;;6.25;100.00
11985;BME280;6052;53.246;10.368;2023-11-18T05:28:49;101930.47;;;6.14;100.00
11985;BME280;6052;53.246;10.368;2023-11-18T05:31:20;101922.41;;;6.22;100.00
11985;BME280;6052;53.246;10.368;2023-11-18T05:33:50;101924.56;;;6.26;100.00
11985;BME280;6052;53.246;10.368;2023-11-18T05:36:22;101907.13;;;6.16;100.00
11985;BME280;6052;53.246;10.368;2023-11-18T05:38:54;101916.69;;;6.10;100.00
11985;BME280;6052;53.246;10.368;2023-11-18T05:41:24;101918.50;;;6.10;100.00
11985;BME280;6052;53.246;10.368;2023-11-18T05:44:00;101915.69;;;6.11;100.00
11985;BME280;6052;53.246;10.368;2023-11-18T05:46:29;101915.38;;;6.06;100.00
11985;BME280;6052;53.246;10.368;2023-11-18T05:49:02;101923.53;;;6.05;100.00
11985;BME280;6052;53.246;10.368;2023-11-18T05:51:35;101918.94;;;5.99;100.00
11985;BME280;6052;53.246;10.368;2023-11-18T05:54:04;101924.09;;;6.00;100.00
11985;BME280;6052;53.246;10.368;2023-11-18T05:56:34;101921.94;;;5.96;100.00
11985;BME280;6052;53.246;10.368;2023-11-18T05:59:06;101929.75;;;5.97;100.00
11985;BME280;6052;53.246;10.368;2023-11-18T06:01:37;101930.34;;;6.07;100.00
11985;BME280;6052;53.246;10.368;2023-11-18T06:04:07;101927.97;;;5.90;100.00
11985;BME280;6052;53.246;10.368;2023-11-18T06:06:37;101914.50;;;5.91;100.00
11985;BME280;6052;53.246;10.368;2023-11-18T06:09:07;101916.00;;;5.86;100.00
11985;BME280;6052;53.246;10.368;2023-11-18T06:11:44;101917.03;;;5.85;100.00
11985;BME280;6052;53.246;10.368;2023-11-18T06:14:16;101919.56;;;5.70;100.00
11985;BME280;6052;53.246;10.368;2023-11-18T06:16:47;101919.06;;;5.75;100.00
11985;BME280;6052;53.246;10.368;2023-11-18T06:19:17;101920.41;;;5.71;100.00
11985;BME280;6052;53.246;10.368;2023-11-18T06:21:47;101919.75;;;5.69;100.00
11985;BME280;6052;53.246;10.368;2023-11-18T06:24:17;101925.41;;;5.74;100.00
11985;BME280;6052;53.246;10.368;2023-11-18T06:26:48;101925.91;;;5.69;100.00
11985;BME280;6052;53.246;10.368;2023-11-18T06:29:21;101916.50;;;5.59;100.00
11985;BME280;6052;53.246;10.368;2023-11-18T06:31:50;101917.09;;;5.69;100.00
11985;BME280;6052;53.246;10.368;2023-11-18T06:34:20;101918.03;;;5.76;100.00
11985;BME280;6052;53.246;10.368;2023-11-18T06:36:50;101915.25;;;5.69;100.00
11985;BME280;6052;53.246;10.368;2023-11-18T06:39:19;101919.16;;;5.59;100.00
11985;BME280;6052;53.246;10.368;2023-11-18T06:41:56;101919.19;;;5.51;100.00
11985;BME280;6052;53.246;10.368;2023-11-18T06:44:28;101928.81;;;5.52;100.00
11985;BME280;6052;53.246;10.368;2023-11-18T06:46:57;101923.50;;;5.52;100.00
11985;BME280;6052;53.246;10.368;2023-11-18T06:49:29;101928.13;;;5.58;100.00
11985;BME280;6052;53.246;10.368;2023-11-18T06:52:01;101925.75;;;5.63;100.00
11985;BME280;6052;53.246;10.368;2023-11-18T06:54:31;101921.50;;;5.54;100.00
11985;BME280;6052;53.246;10.368;2023-11-18T06:57:01;101917.56;;;5.42;100.00
11985;BME280;6052;53.246;10.368;2023-11-18T06:59:33;101919.75;;;5.38;100.00
11985;BME280;6052;53.246;10.368;2023-11-18T07:02:03;101926.50;;;5.49;100.00
11985;BME280;6052;53.246;10.368;2023-11-18T07:04:33;101940.16;;;5.54;100.00
11985;BME280;6052;53.246;10.368;2023-11-18T07:07:05;101936.16;;;5.50;100.00
11985;BME280;6052;53.246;10.368;2023-11-18T07:09:35;101945.34;;;5.39;100.00
11985;BME280;6052;53.246;10.368;2023-11-18T07:12:06;101958.44;;;5.49;100.00
11985;BME280;6052;53.246;10.368;2023-11-18T07:14:38;101967.25;;;5.57;100.00
11985;BME280;6052;53.246;10.368;2023-11-18T07:17:08;101969.44;;;5.54;100.00
11985;BME280;6052;53.246;10.368;2023-11-18T07:19:39;101975.09;;;5.51;100.00
11985;BME280;6052;53.246;10.368;2023-11-18T07:22:11;101983.56;;;5.54;100.00
11985;BME280;6052;53.246;10.368;2023-11-18T07:24:41;101978.63;;;5.43;100.00
11985;BME280;6052;53.246;10.368;2023-11-18T07:27:11;101990.03;;;5.60;100.00
11985;BME280;6052;53.246;10.368;2023-11-18T07:29:43;101994.88;;;5.56;100.00
11985;BME280;6052;53.246;10.368;2023-11-18T07:32:14;101997.34;;;5.58;100.00
11985;BME280;6052;53.246;10.368;2023-11-18T07:34:46;101990.75;;;5.54;100.00
11985;BME280;6052;53.246;10.368;2023-11-18T07:37:16;101987.22;;;5.61;100.00
11985;BME280;6052;53.246;10.368;2023-11-18T07:39:46;101979.03;;;5.63;100.00
11985;BME280;6052;53.246;10.368;2023-11-18T07:42:16;101963.88;;;5.71;100.00
11985;BME280;6052;53.246;10.368;2023-11-18T07:44:50;101966.00;;;5.84;100.00
11985;BME280;6052;53.246;10.368;2023-11-18T07:47:19;101958.91;;;5.99;100.00
11985;BME280;6052;53.246;10.368;2023-11-18T07:49:50;101964.59;;;6.18;100.00
11985;BME280;6052;53.246;10.368;2023-11-18T07:52:20;101975.78;;;6.14;100.00
11985;BME280;6052;53.246;10.368;2023-11-18T07:54:49;101986.44;;;6.14;100.00
11985;BME280;6052;53.246;10.368;2023-11-18T07:57:20;101982.59;;;6.16;100.00
11985;BME280;6052;53.246;10.368;2023-11-18T07:59:55;101988.28;;;6.13;100.00
11985;BME280;6052;53.246;10.368;2023-11-18T08:02:32;101988.06;;;6.23;100.00
11985;BME280;6052;53.246;10.368;2023-11-18T08:05:03;101985.28;;;6.16;100.00
11985;BME280;6052;53.246;10.368;2023-11-18T08:07:35;101980.38;;;6.28;100.00
11985;BME280;6052;53.246;10.368;2023-11-18T08:10:06;101986.88;;;6.25;100.00
11985;BME280;6052;53.246;10.368;2023-11-18T08:12:39;101986.38;;;6.22;100.00
11985;BME280;6052;53.246;10.368;2023-11-18T08:15:13;101980.94;;;6.15;100.00
11985;BME280;6052;53.246;10.368;2023-11-18T08:17:43;101984.22;;;6.25;100.00
11985;BME280;6052;53.246;10.368;2023-11-18T08:20:13;101980.50;;;6.34;100.00
11985;BME280;6052;53.246;10.368;2023-11-18T08:22:43;101980.97;;;6.38;100.00
11985;BME280;6052;53.246;10.368;2023-11-18T08:25:14;101978.22;;;6.23;100.00
11985;BME280;6052;53.246;10.368;2023-11-18T08:27:44;101984.84;;;6.27;100.00
11985;BME280;6052;53.246;10.368;2023-11-18T08:30:18;101980.28;;;6.36;100.00
11985;BME280;6052;53.246;10.368;2023-11-18T08:32:49;101982.94;;;6.36;100.00
11985;BME280;6052;53.246;10.368;2023-11-18T08:35:19;101978.75;;;6.41;100.00
11985;BME280;6052;53.246;10.368;2023-11-18T08:37:50;101974.31;;;6.34;100.00
11985;BME280;6052;53.246;10.368;2023-11-18T08:40:20;101969.16;;;6.32;100.00
11985;BME280;6052;53.246;10.368;2023-11-18T08:42:53;101951.53;;;6.46;100.00
11985;BME280;6052;53.246;10.368;2023-11-18T08:45:27;101953.91;;;6.41;100.00
11985;BME280;6052;53.246;10.368;2023-11-18T08:48:01;101953.22;;;6.47;100.00
11985;BME280;6052;53.246;10.368;2023-11-18T08:50:35;101951.53;;;6.46;100.00
11985;BME280;6052;53.246;10.368;2023-11-18T08:53:07;101944.72;;;6.43;100.00
11985;BME280;6052;53.246;10.368;2023-11-18T08:55:39;101946.94;;;6.40;100.00
11985;BME280;6052;53.246;10.368;2023-11-18T08:58:18;101960.66;;;6.51;100.00
11985;BME280;6052;53.246;10.368;2023-11-18T09:00:53;101949.16;;;6.51;100.00
11985;BME280;6052;53.246;10.368;2023-11-18T09:03:28;101953.22;;;6.47;100.00
11985;BME280;6052;53.246;10.368;2023-11-18T09:06:06;101953.56;;;6.44;100.00
11985;BME280;6052;53.246;10.368;2023-11-18T09:08:46;101951.19;;;6.49;100.00
11985;BME280;6052;53.246;10.368;2023-11-18T09:11:21;101955.88;;;6.47;100.00
11985;BME280;6052;53.246;10.368;2023-11-18T09:13:54;101952.16;;;6.33;100.00
11985;BME280;6052;53.246;10.368;2023-11-18T09:16:31;101953.22;;;6.47;100.00
11985;BME280;6052;53.246;10.368;2023-11-18T09:19:06;101947.00;;;6.54;100.00
11985;BME280;6052;53.246;10.368;2023-11-18T09:21:37;101945.50;;;6.52;100.00
11985;BME280;6052;53.246;10.368;2023-11-18T09:24:09;101937.84;;;6.49;100.00
11985;BME280;6052;53.246;10.368;2023-11-18T09:26:42;101934.72;;;6.45;100.00
11985;BME280;6052;53.246;10.368;2023-11-18T09:29:14;101927.47;;;6.54;100.00
11985;BME280;6052;53.246;10.368;2023-11-18T09:31:50;101934.13;;;6.58;100.00
11985;BME280;6052;53.246;10.368;2023-11-18T09:34:22;101931.69;;;6.48;100.00
11985;BME280;6052;53.246;10.368;2023-11-18T09:37:00;101927.13;;;6.57;100.00
11985;BME280;6052;53.246;10.368;2023-11-18T09:39:34;101930.00;;;6.70;100.00
11985;BME280;6052;53.246;10.368;2023-11-18T09:42:13;101923.91;;;6.61;100.00
11985;BME280;6052;53.246;10.368;2023-11-18T09:44:47;101928.50;;;6.67;100.00
11985;BME280;6052;53.246;10.368;2023-11-18T09:47:24;101931.75;;;6.77;100.00
11985;BME280;6052;53.246;10.368;2023-11-18T09:49:56;101925.31;;;6.72;100.00
11985;BME280;6052;53.246;10.368;2023-11-18T09:52:31;101925.78;;;6.75;100.00
11985;BME280;6052;53.246;10.368;2023-11-18T09:55:05;101925.59;;;6.77;100.00
11985;BME280;6052;53.246;10.368;2023-11-18T09:57:44;101933.88;;;6.82;100.00
11985;BME280;6052;53.246;10.368;2023-11-18T10:00:16;101923.72;;;6.63;100.00
11985;BME280;6052;53.246;10.368;2023-11-18T10:02:56;101935.44;;;6.76;100.00
11985;BME280;6052;53.246;10.368;2023-11-18T10:05:29;101929.66;;;6.87;100.00
11985;BME280;6052;53.246;10.368;2023-11-18T10:08:02;101932.81;;;6.91;100.00
11985;BME280;6052;53.246;10.368;2023-11-18T10:10:33;101929.66;;;6.87;100.00
11985;BME280;6052;53.246;10.368;2023-11-18T10:13:15;101929.75;;;6.94;100.00
11985;BME280;6052;53.246;10.368;2023-11-18T10:15:51;101926.78;;;6.89;100.00
11985;BME280;6052;53.246;10.368;2023-11-18T10:18:27;101928.72;;;6.80;100.00
11985;BME280;6052;53.246;10.368;2023-11-18T10:21:02;101908.56;;;6.92;100.00
11985;BME280;6052;53.246;10.368;2023-11-18T10:23:42;101907.66;;;7.00;100.00
11985;BME280;6052;53.246;10.368;2023-11-18T10:26:28;101912.09;;;6.93;100.00
11985;BME280;6052;53.246;10.368;2023-11-18T10:29:03;101901.97;;;7.03;100.00
11985;BME280;6052;53.246;10.368;2023-11-18T10:31:37;101908.94;;;7.04;100.00
11985;BME280;6052;53.246;10.368;2023-11-18T10:34:15;101898.91;;;6.91;100.00
11985;BME280;6052;53.246;10.368;2023-11-18T10:36:59;101898.28;;;7.04;100.00
11985;BME280;6052;53.246;10.368;2023-11-18T10:39:31;101894.97;;;7.02;100.00
11985;BME280;6052;53.246;10.368;2023-11-18T10:42:03;101888.06;;;7.22;100.00
11985;BME280;6052;53.246;10.368;2023-11-18T10:44:33;101883.06;;;7.19;100.00
11985;BME280;6052;53.246;10.368;2023-11-18T10:47:07;101889.81;;;7.15;100.00
11985;BME280;6052;53.246;10.368;2023-11-18T10:49:42;101873.31;;;7.26;100.00
11985;BME280;6052;53.246;10.368;2023-11-18T10:52:12;101875.72;;;7.21;100.00
11985;BME280;6052;53.246;10.368;2023-11-18T10:54:50;101864.78;;;7.16;100.00
11985;BME280;6052;53.246;10.368;2023-11-18T10:57:22;101873.16;;;7.13;100.00
11985;BME280;6052;53.246;10.368;2023-11-18T10:59:59;101868.16;;;7.24;100.00
11985;BME280;6052;53.246;10.368;2023-11-18T11:02:33;101867.91;;;7.19;100.00
11985;BME280;6052;53.246;10.368;2023-11-18T11:05:09;101863.66;;;7.25;100.00
11985;BME280;6052;53.246;10.368;2023-11-18T11:07:48;101850.59;;;7.15;100.00
11985;BME280;6052;53.246;10.368;2023-11-18T11:10:22;101847.75;;;7.17;100.00
11985;BME280;6052;53.246;10.368;2023-11-18T11:12:55;101843.69;;;7.21;100.00
11985;BME280;6052;53.246;10.368;2023-11-18T11:15:30;101845.41;;;7.28;100.00
11985;BME280;6052;53.246;10.368;2023-11-18T11:18:20;101845.34;;;7.22;100.00
11985;BME280;6052;53.246;10.368;2023-11-18T11:21:06;101849.66;;;7.23;100.00
11985;BME280;6052;53.246;10.368;2023-11-18T11:23:49;101837.16;;;7.09;100.00
11985;BME280;6052;53.246;10.368;2023-11-18T11:26:28;101828.69;;;7.20;100.00
11985;BME280;6052;53.246;10.368;2023-11-18T11:29:05;101817.25;;;7.26;100.00
11985;BME280;6052;53.246;10.368;2023-11-18T11:31:39;101808.72;;;7.16;100.00
11985;BME280;6052;53.246;10.368;2023-11-18T11:34:16;101812.28;;;7.23;100.00
11985;BME280;6052;53.246;10.368;2023-11-18T11:36:51;101796.13;;;7.10;100.00
11985;BME280;6052;53.246;10.368;2023-11-18T11:39:22;101796.25;;;7.23;100.00
11985;BME280;6052;53.246;10.368;2023-11-18T11:41:54;101798.38;;;7.27;100.00
11985;BME280;6052;53.246;10.368;2023-11-18T11:44:26;101805.19;;;7.15;100.00
11985;BME280;6052;53.246;10.368;2023-11-18T11:46:59;101812.28;;;7.23;100.00
11985;BME280;6052;53.246;10.368;2023-11-18T11:49:36;101810.63;;;7.22;100.00
11985;BME280;6052;53.246;10.368;2023-11-18T11:52:18;101803.72;;;7.27;100.00
11985;BME280;6052;53.246;10.368;2023-11-18T11:54:55;101793.41;;;7.24;100.00
11985;BME280;6052;53.246;10.368;2023-11-18T11:57:29;101776.28;;;7.19;100.00
11985;BME280;6052;53.246;10.368;2023-11-18T12:00:09;101777.56;;;7.44;100.00
11985;BME280;6052;53.246;10.368;2023-11-18T12:02:51;101772.56;;;7.34;100.00
11985;BME280;6052;53.246;10.368;2023-11-18T12:05:24;101767.72;;;7.23;100.00
11985;BME280;6052;53.246;10.368;2023-11-18T12:07:58;101770.91;;;7.33;100.00
11985;BME280;6052;53.246;10.368;2023-11-18T12:10:30;101770.50;;;7.36;100.00
11985;BME280;6052;53.246;10.368;2023-11-18T12:13:09;101763.41;;;7.22;100.00
11985;BME280;6052;53.246;10.368;2023-11-18T12:15:51;101754.56;;;7.22;100.00
11985;BME280;6052;53.246;10.368;2023-11-18T12:18:24;101752.22;;;7.12;100.00
11985;BME280;6052;53.246;10.368;2023-11-18T12:20:54;101755.19;;;7.24;100.00
11985;BME280;6052;53.246;10.368;2023-11-18T12:23:31;101760.16;;;7.27;100.00
11985;BME280;6052;53.246;10.368;2023-11-18T12:26:01;101762.50;;;7.15;100.00
11985;BME280;6052;53.246;10.368;2023-11-18T12:28:32;101760.66;;;7.16;100.00
11985;BME280;6052;53.246;10.368;2023-11-18T12:31:38;101770.31;;;7.17;100.00
11985;BME280;6052;53.246;10.368;2023-11-18T12:34:09;101763.16;;;7.17;100.00
11985;BME280;6052;53.246;10.368;2023-11-18T12:37:11;101764.63;;;7.05;100.00
11985;BME280;6052;53.246;10.368;2023-11-18T12:40:16;101759.91;;;7.07;100.00
11985;BME280;6052;53.246;10.368;2023-11-18T12:43:00;101748.06;;;7.10;100.00
11985;BME280;6052;53.246;10.368;2023-11-18T12:48:43;101733.69;;;7.11;100.00
11985;BME280;6052;53.246;10.368;2023-11-18T12:51:14;101722.56;;;7.07;100.00
11985;BME280;6052;53.246;10.368;2023-11-18T12:53:49;101727.22;;;7.20;100.00
11985;BME280;6052;53.246;10.368;2023-11-18T12:56:20;101725.56;;;7.19;100.00
11985;BME280;6052;53.246;10.368;2023-11-18T12:58:50;101738.53;;;7.22;100.00
11985;BME280;6052;53.246;10.368;2023-11-18T13:01:22;101742.34;;;7.13;100.00
11985;BME280;6052;53.246;10.368;2023-11-18T13:03:54;101744.84;;;7.00;100.00
11985;BME280;6052;53.246;10.368;2023-11-18T13:06:24;101751.38;;;7.12;100.00
11985;BME280;6052;53.246;10.368;2023-11-18T13:08:55;101743.97;;;7.14;100.00
11985;BME280;6052;53.246;10.368;2023-11-18T13:11:28;101744.56;;;7.09;100.00
11985;BME280;6052;53.246;10.368;2023-11-18T13:13:58;101747.31;;;7.16;100.00
11985;BME280;6052;53.246;10.368;2023-11-18T13:16:28;101746.78;;;7.06;100.00
11985;BME280;6052;53.246;10.368;2023-11-18T13:18:57;101744.38;;;7.11;100.00
11985;BME280;6052;53.246;10.368;2023-11-18T13:21:27;101751.63;;;7.17;100.00